Deunquat, Ohio
Current Conditions -  °F | °C
As of 9:32 PM on Tuesday 21 Oct 2014 (Local Time) from KMNN Reporting Station
Haze Haze  
Wind Chill: 38°   Ceiling: 1400
Heat Index: 44°   Visibility: 6mi
Dew Point: 39°   Wind: 13mph
Humidity: 82%   Direction: 340°NNW
Pressure: 30.15"   Gusts: NA
Location:  40.948°N, 83.1346°W
Report Text: KMNN 220132Z AUTO 34011KT 6SM HZ OVC014 07/04 A3015 RMK AO2 T00670039 TSNO
Loading
Personal Weather Stations






























Interactive Weather Map
Tropical Storm Tracking
New forecast layout! Learn more

10-Day Weather Forecast

Advertisements
Track Severe Weather on mobile